Archival Weather

Republic

Farmingdale, New York (KFRG)

Report from: Monday, February 19, 2024 6:53 AM EST
Current time: Friday, June 14, 2024 9:07 AM EDT

Current weather – Weather history – Daily summaries
Weather forecast

Temperature-1.7°C (28.9°F)
Wind chill-5.1°C (22.8°F)
Dew point-7.8°C (18.0°F)
Winds 5 kts (2.6 m/s, 5.8 mph) West (270°)
Visibility10 mi. (16.1 km)
Clouds Sky clear
Altimeter30.06 in.Hg (1018 mB)
Relative humidity63 %
Density altitude-2,155 ft. (-657 m)
Sea-level pressure101.8 kPa (1018 mB, 30.06 in.Hg)
Max temp last 6 hours2.2°C (36.0°F)
Min temp last 6 hours-3.9°C (25.0°F)
Remarks Automated weather observing station without precipitation discriminator
Pressure rising more quickly
Flight conditions Visual Meteorological Conditions
Raw dataKFRG 191153Z 27005KT 10SM CLR M02/M08 A3006 RMK AO1 SLP180 T10171078 10022 21039 53028
An error has occurred. This application may no longer respond until reloaded. Reload 🗙